sensor_id;sensor_type;location;lat;lon;timestamp;temperature;humidity
10986;DHT22;5546;48.714;8.738;2023-11-19T00:01:31;10.70;99.90
10986;DHT22;5546;48.714;8.738;2023-11-19T00:03:58;10.70;99.90
10986;DHT22;5546;48.714;8.738;2023-11-19T00:08:50;11.50;99.90
10986;DHT22;5546;48.714;8.738;2023-11-19T00:11:16;11.60;99.90
10986;DHT22;5546;48.714;8.738;2023-11-19T00:13:41;11.40;99.90
10986;DHT22;5546;48.714;8.738;2023-11-19T00:16:08;11.60;99.90
10986;DHT22;5546;48.714;8.738;2023-11-19T00:18:35;11.60;99.90
10986;DHT22;5546;48.714;8.738;2023-11-19T00:21:01;11.20;99.90
10986;DHT22;5546;48.714;8.738;2023-11-19T00:23:27;11.10;99.90
10986;DHT22;5546;48.714;8.738;2023-11-19T00:25:53;11.00;99.90
10986;DHT22;5546;48.714;8.738;2023-11-19T00:28:19;10.80;99.90
10986;DHT22;5546;48.714;8.738;2023-11-19T00:30:44;11.50;99.90
10986;DHT22;5546;48.714;8.738;2023-11-19T00:33:10;10.70;99.90
10986;DHT22;5546;48.714;8.738;2023-11-19T00:35:35;10.70;99.90
10986;DHT22;5546;48.714;8.738;2023-11-19T00:38:01;10.60;99.90
10986;DHT22;5546;48.714;8.738;2023-11-19T00:40:28;10.70;99.90
10986;DHT22;5546;48.714;8.738;2023-11-19T00:42:53;10.10;99.90
10986;DHT22;5546;48.714;8.738;2023-11-19T00:45:19;10.30;99.90
10986;DHT22;5546;48.714;8.738;2023-11-19T00:47:44;10.10;99.90
10986;DHT22;5546;48.714;8.738;2023-11-19T00:50:10;10.20;99.90
10986;DHT22;5546;48.714;8.738;2023-11-19T00:52:37;10.20;99.90
10986;DHT22;5546;48.714;8.738;2023-11-19T00:55:03;10.10;99.90
10986;DHT22;5546;48.714;8.738;2023-11-19T00:57:30;10.30;99.90
10986;DHT22;5546;48.714;8.738;2023-11-19T00:59:57;10.70;99.90
10986;DHT22;5546;48.714;8.738;2023-11-19T01:02:24;10.50;99.90
10986;DHT22;5546;48.714;8.738;2023-11-19T01:04:49;10.30;99.90
10986;DHT22;5546;48.714;8.738;2023-11-19T01:07:15;10.40;99.90
10986;DHT22;5546;48.714;8.738;2023-11-19T01:09:44;10.50;99.90
10986;DHT22;5546;48.714;8.738;2023-11-19T01:12:10;11.10;99.90
10986;DHT22;5546;48.714;8.738;2023-11-19T01:14:36;11.40;99.90
10986;DHT22;5546;48.714;8.738;2023-11-19T01:17:01;10.90;99.90
10986;DHT22;5546;48.714;8.738;2023-11-19T01:19:27;10.90;99.90
10986;DHT22;5546;48.714;8.738;2023-11-19T01:21:54;10.70;99.90
10986;DHT22;5546;48.714;8.738;2023-11-19T01:24:20;10.60;99.90
10986;DHT22;5546;48.714;8.738;2023-11-19T01:26:45;10.70;99.90
10986;DHT22;5546;48.714;8.738;2023-11-19T01:29:12;10.70;99.90
10986;DHT22;5546;48.714;8.738;2023-11-19T01:31:42;10.90;99.90
10986;DHT22;5546;48.714;8.738;2023-11-19T01:34:07;11.30;99.90
10986;DHT22;5546;48.714;8.738;2023-11-19T01:36:33;11.70;99.90
10986;DHT22;5546;48.714;8.738;2023-11-19T01:38:59;12.00;99.90
10986;DHT22;5546;48.714;8.738;2023-11-19T01:41:24;12.10;99.90
10986;DHT22;5546;48.714;8.738;2023-11-19T01:43:50;12.10;99.90
10986;DHT22;5546;48.714;8.738;2023-11-19T01:46:16;11.40;99.90
10986;DHT22;5546;48.714;8.738;2023-11-19T01:48:45;11.40;99.90
10986;DHT22;5546;48.714;8.738;2023-11-19T01:51:12;11.80;99.90
10986;DHT22;5546;48.714;8.738;2023-11-19T01:53:39;12.20;99.90
10986;DHT22;5546;48.714;8.738;2023-11-19T01:56:07;12.40;99.90
10986;DHT22;5546;48.714;8.738;2023-11-19T01:58:38;12.40;99.90
10986;DHT22;5546;48.714;8.738;2023-11-19T02:01:05;12.50;99.90
10986;DHT22;5546;48.714;8.738;2023-11-19T02:03:32;12.60;99.90
10986;DHT22;5546;48.714;8.738;2023-11-19T02:06:02;12.80;99.90
10986;DHT22;5546;48.714;8.738;2023-11-19T02:08:29;12.90;99.90
10986;DHT22;5546;48.714;8.738;2023-11-19T02:10:55;12.80;99.90
10986;DHT22;5546;48.714;8.738;2023-11-19T02:13:26;12.80;99.90
10986;DHT22;5546;48.714;8.738;2023-11-19T02:15:52;12.90;99.90
10986;DHT22;5546;48.714;8.738;2023-11-19T02:18:22;13.10;99.90
10986;DHT22;5546;48.714;8.738;2023-11-19T02:20:51;13.00;99.90
10986;DHT22;5546;48.714;8.738;2023-11-19T02:23:18;12.80;99.90
10986;DHT22;5546;48.714;8.738;2023-11-19T02:25:59;12.90;99.90
10986;DHT22;5546;48.714;8.738;2023-11-19T02:28:26;13.10;99.90
10986;DHT22;5546;48.714;8.738;2023-11-19T02:30:52;13.00;99.90
10986;DHT22;5546;48.714;8.738;2023-11-19T02:33:18;13.00;99.90
10986;DHT22;5546;48.714;8.738;2023-11-19T02:35:44;13.10;99.90
10986;DHT22;5546;48.714;8.738;2023-11-19T02:38:09;12.90;99.90
10986;DHT22;5546;48.714;8.738;2023-11-19T02:40:35;13.00;99.90
10986;DHT22;5546;48.714;8.738;2023-11-19T02:43:00;13.10;99.90
10986;DHT22;5546;48.714;8.738;2023-11-19T02:45:27;13.10;99.90
10986;DHT22;5546;48.714;8.738;2023-11-19T02:47:53;13.10;99.90
10986;DHT22;5546;48.714;8.738;2023-11-19T02:50:20;13.10;99.90
10986;DHT22;5546;48.714;8.738;2023-11-19T02:52:51;13.20;99.90
10986;DHT22;5546;48.714;8.738;2023-11-19T02:55:17;13.40;99.90
10986;DHT22;5546;48.714;8.738;2023-11-19T02:57:43;13.40;99.90
10986;DHT22;5546;48.714;8.738;2023-11-19T03:00:17;13.20;99.90
10986;DHT22;5546;48.714;8.738;2023-11-19T03:02:44;13.30;99.90
10986;DHT22;5546;48.714;8.738;2023-11-19T03:05:19;13.30;99.90
10986;DHT22;5546;48.714;8.738;2023-11-19T03:07:45;13.20;99.90
10986;DHT22;5546;48.714;8.738;2023-11-19T03:10:11;13.30;99.90
10986;DHT22;5546;48.714;8.738;2023-11-19T03:12:40;13.40;99.90
10986;DHT22;5546;48.714;8.738;2023-11-19T03:17:32;13.40;99.90
10986;DHT22;5546;48.714;8.738;2023-11-19T03:19:59;12.60;99.90
10986;DHT22;5546;48.714;8.738;2023-11-19T03:24:52;12.10;99.90
10986;DHT22;5546;48.714;8.738;2023-11-19T03:27:17;12.10;99.90
10986;DHT22;5546;48.714;8.738;2023-11-19T03:29:43;12.10;99.90
10986;DHT22;5546;48.714;8.738;2023-11-19T03:32:09;12.10;99.90
10986;DHT22;5546;48.714;8.738;2023-11-19T03:34:34;12.20;99.90
10986;DHT22;5546;48.714;8.738;2023-11-19T03:36:59;12.20;99.90
10986;DHT22;5546;48.714;8.738;2023-11-19T03:39:25;12.00;99.90
10986;DHT22;5546;48.714;8.738;2023-11-19T03:41:52;12.20;99.90
10986;DHT22;5546;48.714;8.738;2023-11-19T03:44:17;11.90;99.90
10986;DHT22;5546;48.714;8.738;2023-11-19T03:46:45;12.10;99.90
10986;DHT22;5546;48.714;8.738;2023-11-19T03:49:12;12.60;99.90
10986;DHT22;5546;48.714;8.738;2023-11-19T03:51:37;12.20;99.90
10986;DHT22;5546;48.714;8.738;2023-11-19T03:54:03;12.20;99.90
10986;DHT22;5546;48.714;8.738;2023-11-19T03:56:28;12.30;99.90
10986;DHT22;5546;48.714;8.738;2023-11-19T03:58:56;12.10;99.90
10986;DHT22;5546;48.714;8.738;2023-11-19T04:01:21;12.10;99.90
10986;DHT22;5546;48.714;8.738;2023-11-19T04:03:47;12.20;99.90
10986;DHT22;5546;48.714;8.738;2023-11-19T04:06:12;12.10;99.90
10986;DHT22;5546;48.714;8.738;2023-11-19T04:08:38;11.70;99.90
10986;DHT22;5546;48.714;8.738;2023-11-19T04:11:04;11.70;99.90
10986;DHT22;5546;48.714;8.738;2023-11-19T04:13:30;13.30;99.90
10986;DHT22;5546;48.714;8.738;2023-11-19T04:15:56;12.40;99.90
10986;DHT22;5546;48.714;8.738;2023-11-19T04:18:21;12.10;99.90
10986;DHT22;5546;48.714;8.738;2023-11-19T04:20:47;12.10;99.90
10986;DHT22;5546;48.714;8.738;2023-11-19T04:23:12;12.10;99.90
10986;DHT22;5546;48.714;8.738;2023-11-19T04:25:38;12.20;99.90
10986;DHT22;5546;48.714;8.738;2023-11-19T04:28:03;12.00;99.90
10986;DHT22;5546;48.714;8.738;2023-11-19T04:30:29;12.30;99.90
10986;DHT22;5546;48.714;8.738;2023-11-19T04:32:57;12.30;99.90
10986;DHT22;5546;48.714;8.738;2023-11-19T04:35:22;12.80;99.90
10986;DHT22;5546;48.714;8.738;2023-11-19T04:37:48;13.10;99.90
10986;DHT22;5546;48.714;8.738;2023-11-19T04:40:13;13.30;99.90
10986;DHT22;5546;48.714;8.738;2023-11-19T04:42:39;13.00;99.90
10986;DHT22;5546;48.714;8.738;2023-11-19T04:45:06;12.60;99.90
10986;DHT22;5546;48.714;8.738;2023-11-19T04:47:33;12.50;99.90
10986;DHT22;5546;48.714;8.738;2023-11-19T04:49:59;12.50;99.90
10986;DHT22;5546;48.714;8.738;2023-11-19T04:52:25;12.80;99.90
10986;DHT22;5546;48.714;8.738;2023-11-19T04:54:50;13.20;99.90
10986;DHT22;5546;48.714;8.738;2023-11-19T04:57:17;13.40;99.90
10986;DHT22;5546;48.714;8.738;2023-11-19T04:59:42;13.40;99.90
10986;DHT22;5546;48.714;8.738;2023-11-19T05:02:08;13.40;99.90
10986;DHT22;5546;48.714;8.738;2023-11-19T05:04:34;13.10;99.90
10986;DHT22;5546;48.714;8.738;2023-11-19T05:07:00;12.90;99.90
10986;DHT22;5546;48.714;8.738;2023-11-19T05:09:26;12.60;99.90
10986;DHT22;5546;48.714;8.738;2023-11-19T05:11:51;12.40;99.90
10986;DHT22;5546;48.714;8.738;2023-11-19T05:14:17;12.40;99.90
10986;DHT22;5546;48.714;8.738;2023-11-19T05:16:45;12.60;99.90
10986;DHT22;5546;48.714;8.738;2023-11-19T05:19:11;12.70;99.90
10986;DHT22;5546;48.714;8.738;2023-11-19T05:21:36;12.90;99.90
10986;DHT22;5546;48.714;8.738;2023-11-19T05:24:02;13.20;99.90
10986;DHT22;5546;48.714;8.738;2023-11-19T05:26:31;13.30;99.90
10986;DHT22;5546;48.714;8.738;2023-11-19T05:28:57;13.10;99.90
10986;DHT22;5546;48.714;8.738;2023-11-19T05:31:22;13.00;99.90
10986;DHT22;5546;48.714;8.738;2023-11-19T05:33:48;12.80;99.90
10986;DHT22;5546;48.714;8.738;2023-11-19T05:36:13;12.70;99.90
10986;DHT22;5546;48.714;8.738;2023-11-19T05:38:39;12.70;99.90
10986;DHT22;5546;48.714;8.738;2023-11-19T05:41:05;12.80;99.90
10986;DHT22;5546;48.714;8.738;2023-11-19T05:43:31;13.30;99.90
10986;DHT22;5546;48.714;8.738;2023-11-19T05:45:57;13.10;99.90
10986;DHT22;5546;48.714;8.738;2023-11-19T05:48:24;13.40;99.90
10986;DHT22;5546;48.714;8.738;2023-11-19T05:50:49;13.90;99.90
10986;DHT22;5546;48.714;8.738;2023-11-19T05:53:16;13.80;99.90
10986;DHT22;5546;48.714;8.738;2023-11-19T05:55:41;13.80;99.90
10986;DHT22;5546;48.714;8.738;2023-11-19T05:58:14;13.60;99.90
10986;DHT22;5546;48.714;8.738;2023-11-19T06:00:40;13.80;99.90
10986;DHT22;5546;48.714;8.738;2023-11-19T06:03:08;13.40;99.90
10986;DHT22;5546;48.714;8.738;2023-11-19T06:05:34;13.70;99.90
10986;DHT22;5546;48.714;8.738;2023-11-19T06:07:59;13.50;99.90
10986;DHT22;5546;48.714;8.738;2023-11-19T06:10:25;13.30;99.90
10986;DHT22;5546;48.714;8.738;2023-11-19T06:12:59;13.30;99.90
10986;DHT22;5546;48.714;8.738;2023-11-19T06:15:26;13.50;99.90
10986;DHT22;5546;48.714;8.738;2023-11-19T06:17:52;13.30;99.90
10986;DHT22;5546;48.714;8.738;2023-11-19T06:20:18;13.30;99.90
10986;DHT22;5546;48.714;8.738;2023-11-19T06:22:45;13.30;99.90
10986;DHT22;5546;48.714;8.738;2023-11-19T06:25:11;13.40;99.90
10986;DHT22;5546;48.714;8.738;2023-11-19T06:27:36;13.30;99.90
10986;DHT22;5546;48.714;8.738;2023-11-19T06:30:02;13.30;99.90
10986;DHT22;5546;48.714;8.738;2023-11-19T06:32:28;13.40;99.90
10986;DHT22;5546;48.714;8.738;2023-11-19T06:34:54;13.10;99.90
10986;DHT22;5546;48.714;8.738;2023-11-19T06:37:20;13.10;99.90
10986;DHT22;5546;48.714;8.738;2023-11-19T06:39:45;13.10;99.90
10986;DHT22;5546;48.714;8.738;2023-11-19T06:42:11;13.20;99.90
10986;DHT22;5546;48.714;8.738;2023-11-19T06:44:36;13.20;99.90
10986;DHT22;5546;48.714;8.738;2023-11-19T06:47:02;13.10;99.90
10986;DHT22;5546;48.714;8.738;2023-11-19T06:49:28;13.00;99.90
10986;DHT22;5546;48.714;8.738;2023-11-19T06:51:53;13.20;99.90
10986;DHT22;5546;48.714;8.738;2023-11-19T06:54:18;13.70;99.90
10986;DHT22;5546;48.714;8.738;2023-11-19T06:56:44;13.80;99.90
10986;DHT22;5546;48.714;8.738;2023-11-19T06:59:09;13.70;99.90
10986;DHT22;5546;48.714;8.738;2023-11-19T07:01:36;13.50;99.90
10986;DHT22;5546;48.714;8.738;2023-11-19T07:04:02;13.30;99.90
10986;DHT22;5546;48.714;8.738;2023-11-19T07:06:33;13.40;99.90
10986;DHT22;5546;48.714;8.738;2023-11-19T07:08:59;13.60;99.90
10986;DHT22;5546;48.714;8.738;2023-11-19T07:11:24;13.70;99.90
10986;DHT22;5546;48.714;8.738;2023-11-19T07:16:16;13.90;99.90
10986;DHT22;5546;48.714;8.738;2023-11-19T07:18:41;14.40;99.90
10986;DHT22;5546;48.714;8.738;2023-11-19T07:21:09;14.50;99.90
10986;DHT22;5546;48.714;8.738;2023-11-19T07:23:36;14.50;99.90
10986;DHT22;5546;48.714;8.738;2023-11-19T07:26:04;14.50;99.90
10986;DHT22;5546;48.714;8.738;2023-11-19T07:28:29;14.50;99.90
10986;DHT22;5546;48.714;8.738;2023-11-19T07:30:55;14.50;99.90
10986;DHT22;5546;48.714;8.738;2023-11-19T07:33:21;14.70;99.90
10986;DHT22;5546;48.714;8.738;2023-11-19T07:35:47;14.70;99.90
10986;DHT22;5546;48.714;8.738;2023-11-19T07:38:13;14.80;99.90
10986;DHT22;5546;48.714;8.738;2023-11-19T07:40:38;15.10;99.90
10986;DHT22;5546;48.714;8.738;2023-11-19T07:43:04;14.70;99.90
10986;DHT22;5546;48.714;8.738;2023-11-19T07:45:29;14.30;99.90
10986;DHT22;5546;48.714;8.738;2023-11-19T07:47:55;13.90;99.90
10986;DHT22;5546;48.714;8.738;2023-11-19T07:50:20;14.20;99.90
10986;DHT22;5546;48.714;8.738;2023-11-19T07:52:46;14.10;99.90
10986;DHT22;5546;48.714;8.738;2023-11-19T07:55:11;13.80;99.90
10986;DHT22;5546;48.714;8.738;2023-11-19T07:57:37;14.00;99.90
10986;DHT22;5546;48.714;8.738;2023-11-19T08:00:03;14.30;99.90
10986;DHT22;5546;48.714;8.738;2023-11-19T08:02:29;14.60;99.90
10986;DHT22;5546;48.714;8.738;2023-11-19T08:04:54;14.90;99.90
10986;DHT22;5546;48.714;8.738;2023-11-19T08:07:21;15.00;99.90
10986;DHT22;5546;48.714;8.738;2023-11-19T08:09:47;17.00;99.90
10986;DHT22;5546;48.714;8.738;2023-11-19T08:12:13;14.90;99.90
10986;DHT22;5546;48.714;8.738;2023-11-19T08:14:41;15.00;99.90
10986;DHT22;5546;48.714;8.738;2023-11-19T08:17:06;15.00;99.90
10986;DHT22;5546;48.714;8.738;2023-11-19T08:19:32;14.50;99.90
10986;DHT22;5546;48.714;8.738;2023-11-19T08:21:57;14.60;99.90
10986;DHT22;5546;48.714;8.738;2023-11-19T08:24:23;14.50;99.90
10986;DHT22;5546;48.714;8.738;2023-11-19T08:26:48;14.40;99.90
10986;DHT22;5546;48.714;8.738;2023-11-19T08:29:14;14.70;99.90
10986;DHT22;5546;48.714;8.738;2023-11-19T08:31:39;14.60;99.90
10986;DHT22;5546;48.714;8.738;2023-11-19T08:34:06;14.60;99.90
10986;DHT22;5546;48.714;8.738;2023-11-19T08:36:34;14.70;99.90
10986;DHT22;5546;48.714;8.738;2023-11-19T08:39:00;14.60;99.90
10986;DHT22;5546;48.714;8.738;2023-11-19T08:41:25;14.90;99.90
10986;DHT22;5546;48.714;8.738;2023-11-19T08:43:51;15.00;99.90
10986;DHT22;5546;48.714;8.738;2023-11-19T08:46:17;15.30;99.90
10986;DHT22;5546;48.714;8.738;2023-11-19T08:48:42;15.20;99.90
10986;DHT22;5546;48.714;8.738;2023-11-19T08:51:08;15.00;99.90
10986;DHT22;5546;48.714;8.738;2023-11-19T08:53:34;16.20;99.90
10986;DHT22;5546;48.714;8.738;2023-11-19T08:55:59;15.20;99.90
10986;DHT22;5546;48.714;8.738;2023-11-19T08:58:26;15.00;99.90
10986;DHT22;5546;48.714;8.738;2023-11-19T09:00:51;15.20;99.90
10986;DHT22;5546;48.714;8.738;2023-11-19T09:03:17;15.10;99.90
10986;DHT22;5546;48.714;8.738;2023-11-19T09:05:42;15.50;99.90
10986;DHT22;5546;48.714;8.738;2023-11-19T09:08:08;15.50;99.90
10986;DHT22;5546;48.714;8.738;2023-11-19T09:10:33;15.30;99.90
10986;DHT22;5546;48.714;8.738;2023-11-19T09:12:59;14.80;99.90
10986;DHT22;5546;48.714;8.738;2023-11-19T09:15:24;15.30;99.90
10986;DHT22;5546;48.714;8.738;2023-11-19T09:17:50;15.30;99.90
10986;DHT22;5546;48.714;8.738;2023-11-19T09:20:15;15.40;99.90
10986;DHT22;5546;48.714;8.738;2023-11-19T09:22:41;15.40;99.90
10986;DHT22;5546;48.714;8.738;2023-11-19T09:25:07;15.40;99.90
10986;DHT22;5546;48.714;8.738;2023-11-19T09:27:33;15.40;99.90
10986;DHT22;5546;48.714;8.738;2023-11-19T09:29:58;15.40;99.90
10986;DHT22;5546;48.714;8.738;2023-11-19T09:32:25;16.00;99.90
10986;DHT22;5546;48.714;8.738;2023-11-19T09:34:50;17.30;99.90
10986;DHT22;5546;48.714;8.738;2023-11-19T09:37:16;20.80;99.20
10986;DHT22;5546;48.714;8.738;2023-11-19T09:39:42;22.60;95.80
10986;DHT22;5546;48.714;8.738;2023-11-19T09:42:12;22.50;96.10
10986;DHT22;5546;48.714;8.738;2023-11-19T09:44:38;24.60;94.10
10986;DHT22;5546;48.714;8.738;2023-11-19T09:47:06;25.50;90.50
10986;DHT22;5546;48.714;8.738;2023-11-19T09:49:32;26.80;89.30
10986;DHT22;5546;48.714;8.738;2023-11-19T09:51:57;27.70;83.40
10986;DHT22;5546;48.714;8.738;2023-11-19T09:54:23;24.70;85.80
10986;DHT22;5546;48.714;8.738;2023-11-19T09:56:49;24.60;88.70
10986;DHT22;5546;48.714;8.738;2023-11-19T09:59:15;24.80;86.70
10986;DHT22;5546;48.714;8.738;2023-11-19T10:01:41;25.60;84.90
10986;DHT22;5546;48.714;8.738;2023-11-19T10:04:07;25.60;85.60
10986;DHT22;5546;48.714;8.738;2023-11-19T10:06:35;26.00;86.40
10986;DHT22;5546;48.714;8.738;2023-11-19T10:09:00;26.50;77.40
10986;DHT22;5546;48.714;8.738;2023-11-19T10:11:26;26.60;78.50
10986;DHT22;5546;48.714;8.738;2023-11-19T10:13:53;29.50;76.50
10986;DHT22;5546;48.714;8.738;2023-11-19T10:16:19;29.40;76.90
10986;DHT22;5546;48.714;8.738;2023-11-19T10:18:45;30.10;73.70
10986;DHT22;5546;48.714;8.738;2023-11-19T10:21:14;30.70;71.00
10986;DHT22;5546;48.714;8.738;2023-11-19T10:23:56;30.70;67.90
10986;DHT22;5546;48.714;8.738;2023-11-19T10:26:26;30.10;64.90
10986;DHT22;5546;48.714;8.738;2023-11-19T10:28:52;28.70;69.40
10986;DHT22;5546;48.714;8.738;2023-11-19T10:31:19;29.20;68.20
10986;DHT22;5546;48.714;8.738;2023-11-19T10:33:51;29.40;67.80
10986;DHT22;5546;48.714;8.738;2023-11-19T10:36:17;29.50;67.00
10986;DHT22;5546;48.714;8.738;2023-11-19T10:38:56;29.60;67.80
10986;DHT22;5546;48.714;8.738;2023-11-19T10:41:29;30.70;61.60
10986;DHT22;5546;48.714;8.738;2023-11-19T10:43:54;28.80;66.10
10986;DHT22;5546;48.714;8.738;2023-11-19T10:46:20;28.40;65.60
10986;DHT22;5546;48.714;8.738;2023-11-19T10:48:49;28.60;63.90
10986;DHT22;5546;48.714;8.738;2023-11-19T10:51:19;28.80;63.60
10986;DHT22;5546;48.714;8.738;2023-11-19T10:53:49;28.80;65.30
10986;DHT22;5546;48.714;8.738;2023-11-19T10:56:16;29.20;62.30
10986;DHT22;5546;48.714;8.738;2023-11-19T10:58:45;28.10;63.40
10986;DHT22;5546;48.714;8.738;2023-11-19T11:01:19;27.50;65.70
10986;DHT22;5546;48.714;8.738;2023-11-19T11:06:13;26.00;68.50
10986;DHT22;5546;48.714;8.738;2023-11-19T11:08:39;24.60;72.90
10986;DHT22;5546;48.714;8.738;2023-11-19T11:11:05;23.90;75.10
10986;DHT22;5546;48.714;8.738;2023-11-19T11:13:33;23.30;75.80
10986;DHT22;5546;48.714;8.738;2023-11-19T11:15:59;22.20;81.10
10986;DHT22;5546;48.714;8.738;2023-11-19T11:18:26;21.60;83.10
10986;DHT22;5546;48.714;8.738;2023-11-19T11:21:08;21.10;84.10
10986;DHT22;5546;48.714;8.738;2023-11-19T11:23:56;19.90;90.20
10986;DHT22;5546;48.714;8.738;2023-11-19T11:27:01;19.10;90.90
10986;DHT22;5546;48.714;8.738;2023-11-19T11:29:37;18.80;91.90
10986;DHT22;5546;48.714;8.738;2023-11-19T11:35:28;18.00;95.20
10986;DHT22;5546;48.714;8.738;2023-11-19T11:38:03;17.70;94.80
10986;DHT22;5546;48.714;8.738;2023-11-19T11:40:29;17.70;94.80
10986;DHT22;5546;48.714;8.738;2023-11-19T11:42:54;17.70;95.10
10986;DHT22;5546;48.714;8.738;2023-11-19T11:45:43;17.60;94.80
10986;DHT22;5546;48.714;8.738;2023-11-19T11:48:12;17.70;94.30
10986;DHT22;5546;48.714;8.738;2023-11-19T11:50:54;17.50;94.50
10986;DHT22;5546;48.714;8.738;2023-11-19T11:53:21;17.40;94.60
10986;DHT22;5546;48.714;8.738;2023-11-19T11:58:20;17.80;95.30
10986;DHT22;5546;48.714;8.738;2023-11-19T12:00:47;17.80;93.80
10986;DHT22;5546;48.714;8.738;2023-11-19T12:03:13;17.80;94.20
10986;DHT22;5546;48.714;8.738;2023-11-19T12:05:41;17.50;94.80
10986;DHT22;5546;48.714;8.738;2023-11-19T12:08:07;17.40;93.40
10986;DHT22;5546;48.714;8.738;2023-11-19T12:10:46;17.60;93.30
10986;DHT22;5546;48.714;8.738;2023-11-19T12:13:16;18.30;93.90
10986;DHT22;5546;48.714;8.738;2023-11-19T12:20:49;16.90;94.90
10986;DHT22;5546;48.714;8.738;2023-11-19T12:23:15;17.20;95.50
10986;DHT22;5546;48.714;8.738;2023-11-19T12:25:41;17.10;94.90
10986;DHT22;5546;48.714;8.738;2023-11-19T12:28:12;17.20;95.30
10986;DHT22;5546;48.714;8.738;2023-11-19T12:30:38;17.20;96.20
10986;DHT22;5546;48.714;8.738;2023-11-19T12:33:08;17.00;96.40
10986;DHT22;5546;48.714;8.738;2023-11-19T12:35:39;16.30;94.30
10986;DHT22;5546;48.714;8.738;2023-11-19T12:38:05;16.20;94.60
10986;DHT22;5546;48.714;8.738;2023-11-19T12:42:56;16.70;94.10
10986;DHT22;5546;48.714;8.738;2023-11-19T12:47:49;16.80;93.80
10986;DHT22;5546;48.714;8.738;2023-11-19T12:50:17;16.70;94.00
10986;DHT22;5546;48.714;8.738;2023-11-19T12:52:57;17.10;93.10
10986;DHT22;5546;48.714;8.738;2023-11-19T12:55:30;17.00;94.50
10986;DHT22;5546;48.714;8.738;2023-11-19T12:57:57;16.90;95.40
10986;DHT22;5546;48.714;8.738;2023-11-19T13:00:24;17.00;95.20
10986;DHT22;5546;48.714;8.738;2023-11-19T13:02:55;16.50;96.00
10986;DHT22;5546;48.714;8.738;2023-11-19T13:05:25;16.20;94.80
10986;DHT22;5546;48.714;8.738;2023-11-19T13:10:27;16.20;95.80
10986;DHT22;5546;48.714;8.738;2023-11-19T13:13:04;16.20;95.50
10986;DHT22;5546;48.714;8.738;2023-11-19T13:17:55;16.30;94.40
10986;DHT22;5546;48.714;8.738;2023-11-19T13:20:21;16.70;96.50
10986;DHT22;5546;48.714;8.738;2023-11-19T13:23:00;16.70;96.60
10986;DHT22;5546;48.714;8.738;2023-11-19T13:25:26;16.70;97.10
10986;DHT22;5546;48.714;8.738;2023-11-19T13:27:53;16.70;95.70
10986;DHT22;5546;48.714;8.738;2023-11-19T13:30:18;16.70;96.00
10986;DHT22;5546;48.714;8.738;2023-11-19T13:32:44;16.40;97.20
10986;DHT22;5546;48.714;8.738;2023-11-19T13:35:14;16.20;96.20
10986;DHT22;5546;48.714;8.738;2023-11-19T13:37:40;15.80;97.80
10986;DHT22;5546;48.714;8.738;2023-11-19T13:40:10;15.80;97.00
10986;DHT22;5546;48.714;8.738;2023-11-19T13:42:39;15.60;95.20
10986;DHT22;5546;48.714;8.738;2023-11-19T13:45:11;15.90;96.20
10986;DHT22;5546;48.714;8.738;2023-11-19T13:47:45;16.10;95.80
10986;DHT22;5546;48.714;8.738;2023-11-19T13:50:12;16.10;96.00
10986;DHT22;5546;48.714;8.738;2023-11-19T13:55:09;16.10;96.30
10986;DHT22;5546;48.714;8.738;2023-11-19T13:57:35;16.20;96.90
10986;DHT22;5546;48.714;8.738;2023-11-19T14:00:06;16.20;96.80
10986;DHT22;5546;48.714;8.738;2023-11-19T14:02:33;16.40;96.50
10986;DHT22;5546;48.714;8.738;2023-11-19T14:04:58;15.90;97.10
10986;DHT22;5546;48.714;8.738;2023-11-19T14:07:24;15.70;97.20
10986;DHT22;5546;48.714;8.738;2023-11-19T14:09:49;15.40;96.50
10986;DHT22;5546;48.714;8.738;2023-11-19T14:12:15;15.50;97.80
10986;DHT22;5546;48.714;8.738;2023-11-19T14:14:41;15.50;99.10
10986;DHT22;5546;48.714;8.738;2023-11-19T14:17:07;15.40;99.60
10986;DHT22;5546;48.714;8.738;2023-11-19T14:19:33;15.40;99.30
10986;DHT22;5546;48.714;8.738;2023-11-19T14:21:59;15.20;99.90
10986;DHT22;5546;48.714;8.738;2023-11-19T14:24:25;15.10;99.90
10986;DHT22;5546;48.714;8.738;2023-11-19T14:26:51;15.10;99.90
10986;DHT22;5546;48.714;8.738;2023-11-19T14:29:17;14.80;99.60
10986;DHT22;5546;48.714;8.738;2023-11-19T14:31:42;14.70;99.90
10986;DHT22;5546;48.714;8.738;2023-11-19T14:34:08;14.70;99.90
10986;DHT22;5546;48.714;8.738;2023-11-19T14:36:34;14.70;99.90
10986;DHT22;5546;48.714;8.738;2023-11-19T14:39:00;16.20;99.90
10986;DHT22;5546;48.714;8.738;2023-11-19T14:41:26;14.70;99.90
10986;DHT22;5546;48.714;8.738;2023-11-19T14:43:51;14.80;99.90
10986;DHT22;5546;48.714;8.738;2023-11-19T14:46:17;14.60;99.90
10986;DHT22;5546;48.714;8.738;2023-11-19T14:48:42;14.60;99.90
10986;DHT22;5546;48.714;8.738;2023-11-19T14:51:08;14.70;99.90
10986;DHT22;5546;48.714;8.738;2023-11-19T14:53:33;14.80;99.90
10986;DHT22;5546;48.714;8.738;2023-11-19T14:56:00;14.60;99.90
10986;DHT22;5546;48.714;8.738;2023-11-19T14:58:25;14.70;99.90
10986;DHT22;5546;48.714;8.738;2023-11-19T15:00:51;14.60;99.90
10986;DHT22;5546;48.714;8.738;2023-11-19T15:03:18;14.60;99.90
10986;DHT22;5546;48.714;8.738;2023-11-19T15:05:48;14.20;99.90
10986;DHT22;5546;48.714;8.738;2023-11-19T15:08:13;14.30;99.90
10986;DHT22;5546;48.714;8.738;2023-11-19T15:10:41;14.30;99.90
10986;DHT22;5546;48.714;8.738;2023-11-19T15:13:07;14.10;99.90
10986;DHT22;5546;48.714;8.738;2023-11-19T15:15:34;14.10;99.90
10986;DHT22;5546;48.714;8.738;2023-11-19T15:17:59;14.10;99.90
10986;DHT22;5546;48.714;8.738;2023-11-19T15:20:26;14.40;99.90
10986;DHT22;5546;48.714;8.738;2023-11-19T15:22:55;14.30;99.90
10986;DHT22;5546;48.714;8.738;2023-11-19T15:25:21;14.20;99.90
10986;DHT22;5546;48.714;8.738;2023-11-19T15:27:48;13.90;99.90
10986;DHT22;5546;48.714;8.738;2023-11-19T15:30:13;14.00;99.90
10986;DHT22;5546;48.714;8.738;2023-11-19T15:32:39;13.80;99.90
10986;DHT22;5546;48.714;8.738;2023-11-19T15:35:05;13.80;99.90
10986;DHT22;5546;48.714;8.738;2023-11-19T15:37:32;13.60;99.90
10986;DHT22;5546;48.714;8.738;2023-11-19T15:39:58;13.50;99.90
10986;DHT22;5546;48.714;8.738;2023-11-19T15:42:24;13.30;99.90
10986;DHT22;5546;48.714;8.738;2023-11-19T15:44:49;13.50;99.90
10986;DHT22;5546;48.714;8.738;2023-11-19T15:47:15;13.30;99.90
10986;DHT22;5546;48.714;8.738;2023-11-19T15:49:41;13.70;99.90
10986;DHT22;5546;48.714;8.738;2023-11-19T15:52:06;13.70;99.90
10986;DHT22;5546;48.714;8.738;2023-11-19T15:54:32;13.80;99.90
10986;DHT22;5546;48.714;8.738;2023-11-19T15:56:58;13.80;99.90
10986;DHT22;5546;48.714;8.738;2023-11-19T16:01:49;13.50;99.90
10986;DHT22;5546;48.714;8.738;2023-11-19T16:04:14;13.70;99.90
10986;DHT22;5546;48.714;8.738;2023-11-19T16:06:40;13.70;99.90
10986;DHT22;5546;48.714;8.738;2023-11-19T16:09:06;13.60;99.90
10986;DHT22;5546;48.714;8.738;2023-11-19T16:11:31;13.60;99.90
10986;DHT22;5546;48.714;8.738;2023-11-19T16:13:57;13.50;99.90
10986;DHT22;5546;48.714;8.738;2023-11-19T16:16:22;13.40;99.90
10986;DHT22;5546;48.714;8.738;2023-11-19T16:18:48;13.40;99.90
10986;DHT22;5546;48.714;8.738;2023-11-19T16:21:13;13.30;99.90